Time;durP1;ratioP1;P1;durP2;ratioP2;P2;SDS_P1;SDS_P2;PMS_P1;PMS_P2;Temp;Humidity;BMP_temperature;BMP_pressure;BME280_temperature;BME280_humidity;BME280_pressure;Samples;Min_cycle;Max_cycle;Signal;HPM_P1;HPM_P2
2022/04/06 00:00:48;;;;;;;;;4.50;2.75;;;;;10.55;100.00;100761.44;6314416;22;45299;-85
2022/04/06 00:03:14;;;;;;;;;5.75;2.00;;;;;10.58;100.00;100765.69;6281741;22;46653;-84
2022/04/06 00:05:40;;;;;;;;;3.50;2.00;;;;;10.65;100.00;100761.69;6313469;22;44740;-83
2022/04/06 00:08:05;;;;;;;;;3.75;3.50;;;;;10.69;100.00;100752.56;6308432;22;44811;-84
2022/04/06 00:10:33;;;;;;;;;3.00;2.25;;;;;10.55;100.00;100756.13;6277928;22;45448;-83
2022/04/06 00:13:00;;;;;;;;;3.00;3.00;;;;;10.48;100.00;100763.63;6307383;22;45038;-83
2022/04/06 00:15:26;;;;;;;;;4.40;3.00;;;;;10.38;100.00;100759.88;6307721;22;45155;-83
2022/04/06 00:17:51;;;;;;;;;2.00;1.00;;;;;10.38;100.00;100745.75;6307776;22;44772;-84
2022/04/06 00:20:17;;;;;;;;;2.00;2.00;;;;;10.29;100.00;100753.38;6309689;22;44884;-82
2022/04/06 00:22:43;;;;;;;;;1.75;1.00;;;;;10.28;100.00;100749.03;6309936;22;45249;-84
2022/04/06 00:25:09;;;;;;;;;4.75;2.50;;;;;10.31;100.00;100747.13;6306164;22;45309;-83
2022/04/06 00:27:35;;;;;;;;;1.40;1.00;;;;;10.26;100.00;100736.81;6311702;22;44787;-83
2022/04/06 00:30:01;;;;;;;;;4.25;2.00;;;;;10.23;100.00;100739.63;6312499;22;45448;-84
2022/04/06 00:32:26;;;;;;;;;10.50;3.00;;;;;10.21;100.00;100730.94;6313227;22;44835;-83
2022/04/06 00:37:35;;;;;;;;;6.00;2.75;;;;;10.20;100.00;100727.41;6309968;22;45233;-83
2022/04/06 00:40:01;;;;;;;;;0.00;0.00;;;;;10.24;100.00;100722.78;6277731;22;44852;-84
2022/04/06 00:42:26;;;;;;;;;3.25;3.25;;;;;10.21;100.00;100718.50;6306235;22;45348;-83
2022/04/06 00:44:52;;;;;;;;;1.00;1.00;;;;;10.24;100.00;100718.31;6276737;22;45374;-84
2022/04/06 00:47:17;;;;;;;;;1.00;1.00;;;;;10.20;100.00;100710.63;6306407;22;45290;-83
2022/04/06 00:49:43;;;;;;;;;7.50;1.00;;;;;10.18;100.00;100707.22;6306643;22;44748;-84
2022/04/06 00:52:08;;;;;;;;;2.00;2.00;;;;;10.16;100.00;100703.84;6278940;22;45858;-85
2022/04/06 00:54:37;;;;;;;;;3.00;2.25;;;;;10.13;100.00;100699.56;6307186;22;44721;-83
2022/04/06 00:57:03;;;;;;;;;7.00;4.00;;;;;10.09;100.00;100703.38;6308188;22;45322;-83
2022/04/06 00:59:29;;;;;;;;;2.50;2.50;;;;;10.01;100.00;100700.38;6310933;22;45097;-83
2022/04/06 01:01:56;;;;;;;;;3.00;3.00;;;;;9.99;100.00;100705.75;6313502;22;45254;-82
2022/04/06 01:04:22;;;;;;;;;4.40;3.20;;;;;9.91;100.00;100702.78;6314841;22;45380;-82
2022/04/06 01:06:49;;;;;;;;;2.00;2.00;;;;;9.87;100.00;100703.91;6281050;22;44751;-83
2022/04/06 01:09:18;;;;;;;;;3.25;1.00;;;;;9.84;100.00;100700.59;6308102;22;45246;-83
2022/04/06 01:11:45;;;;;;;;;2.20;2.00;;;;;9.80;100.00;100702.59;6276469;22;48018;-83
2022/04/06 01:14:11;;;;;;;;;1.60;1.60;;;;;9.74;100.00;100684.44;6278620;22;45250;-83
2022/04/06 01:16:37;;;;;;;;;2.60;2.00;;;;;9.67;100.00;100688.41;6279885;22;44723;-83
2022/04/06 01:19:03;;;;;;;;;2.00;0.25;;;;;9.66;100.00;100687.56;6281456;22;45285;-83
2022/04/06 01:21:28;;;;;;;;;4.75;2.25;;;;;9.62;100.00;100688.72;6284218;22;45343;-82
2022/04/06 01:23:54;;;;;;;;;2.75;2.75;;;;;9.55;100.00;100675.94;6283517;22;45385;-83
2022/04/06 01:26:19;;;;;;;;;8.00;3.00;;;;;9.50;100.00;100682.38;6278193;22;45033;-84
2022/04/06 01:28:45;;;;;;;;;2.50;2.50;;;;;9.47;100.00;100687.88;6276259;22;44915;-83
2022/04/06 01:31:10;;;;;;;;;3.25;1.75;;;;;9.43;100.00;100685.53;6285552;22;45316;-82
2022/04/06 01:33:36;;;;;;;;;4.75;3.75;;;;;9.38;100.00;100682.31;6287190;22;44651;-84
2022/04/06 01:36:01;;;;;;;;;3.00;3.00;;;;;9.31;100.00;100684.50;6281003;22;44745;-83
2022/04/06 01:38:27;;;;;;;;;2.50;2.00;;;;;9.23;100.00;100682.34;6276333;22;45190;-82
2022/04/06 01:40:53;;;;;;;;;6.00;2.50;;;;;9.22;100.00;100685.06;6274728;22;45912;-81
2022/04/06 01:43:19;;;;;;;;;2.50;2.00;;;;;9.19;100.00;100679.97;6278520;22;44734;-83
2022/04/06 01:45:45;;;;;;;;;3.75;2.00;;;;;9.14;100.00;100688.22;6281845;22;44815;-82
2022/04/06 01:48:10;;;;;;;;;4.00;2.25;;;;;9.13;100.00;100682.97;6274765;22;44736;-82
2022/04/06 01:53:20;;;;;;;;;1.00;1.00;;;;;9.03;100.00;100682.69;6273777;22;44724;-82
2022/04/06 01:55:45;;;;;;;;;3.00;3.00;;;;;8.96;100.00;100679.59;6272987;22;44760;-83
2022/04/06 01:58:12;;;;;;;;;2.00;2.00;;;;;8.91;100.00;100673.72;6275455;22;45219;-82
2022/04/06 02:00:38;;;;;;;;;4.00;3.00;;;;;8.87;100.00;100680.13;6276429;22;45075;-82
2022/04/06 02:03:03;;;;;;;;;1.75;1.00;;;;;8.85;100.00;100675.88;6278022;22;45275;-82
2022/04/06 02:05:33;;;;;;;;;3.00;1.75;;;;;8.80;100.00;100672.66;6277963;22;45264;-82
2022/04/06 02:08:00;;;;;;;;;3.50;2.50;;;;;8.74;100.00;100666.78;6275283;22;45160;-82
2022/04/06 02:10:27;;;;;;;;;3.25;1.00;;;;;8.72;100.00;100671.31;6278394;22;45050;-81
2022/04/06 02:12:55;;;;;;;;;5.40;1.60;;;;;8.67;100.00;100669.91;6306450;22;45304;-80
2022/04/06 02:15:21;;;;;;;;;4.00;2.00;;;;;8.65;100.00;100671.78;6307647;22;44697;-83
2022/04/06 02:17:47;;;;;;;;;2.50;1.00;;;;;8.64;100.00;100676.22;6306737;22;45455;-82
2022/04/06 02:20:13;;;;;;;;;4.00;2.00;;;;;8.63;100.00;100674.53;6310643;22;45259;-82
2022/04/06 02:22:40;;;;;;;;;2.00;1.00;;;;;8.59;100.00;100673.00;6308632;22;44654;-82
2022/04/06 02:25:06;;;;;;;;;4.80;2.00;;;;;8.56;100.00;100669.66;6306619;22;45381;-82
2022/04/06 02:27:31;;;;;;;;;3.00;2.50;;;;;8.54;100.00;100671.56;6278324;22;45353;-81
2022/04/06 02:29:56;;;;;;;;;1.00;1.00;;;;;8.48;100.00;100657.75;6306363;22;44863;-81
2022/04/06 02:32:22;;;;;;;;;3.00;3.00;;;;;8.48;100.00;100656.91;6286048;22;45300;-81
2022/04/06 02:34:47;;;;;;;;;2.00;2.00;;;;;8.45;100.00;100650.00;6309527;22;44869;-83
2022/04/06 02:37:13;;;;;;;;;2.00;2.00;;;;;8.50;100.00;100653.22;6310381;22;45567;-83
2022/04/06 02:39:38;;;;;;;;;3.00;2.00;;;;;8.54;100.00;100656.53;6308091;22;45283;-84
2022/04/06 02:42:04;;;;;;;;;2.50;1.75;;;;;8.59;100.00;100648.31;6305226;22;44661;-83
2022/04/06 02:44:30;;;;;;;;;4.75;3.00;;;;;8.64;100.00;100651.53;6304999;22;45151;-82
2022/04/06 02:46:55;;;;;;;;;3.25;2.75;;;;;8.67;100.00;100646.91;6277171;22;45150;-83
2022/04/06 02:49:21;;;;;;;;;2.25;1.00;;;;;8.72;100.00;100638.69;6303509;22;45310;-82
2022/04/06 02:51:46;;;;;;;;;1.75;1.75;;;;;8.77;100.00;100641.91;6276132;22;44614;-83
2022/04/06 02:54:11;;;;;;;;;1.00;1.00;;;;;8.82;100.00;100645.13;6304918;22;45348;-81
2022/04/06 02:56:37;;;;;;;;;2.00;2.00;;;;;8.84;100.00;100643.22;6305922;22;45301;-83
2022/04/06 02:59:03;;;;;;;;;2.00;2.00;;;;;8.86;100.00;100641.34;6307001;22;45209;-83
2022/04/06 03:01:28;;;;;;;;;2.00;2.00;;;;;8.91;100.00;100639.28;6307587;22;45310;-82
2022/04/06 03:03:54;;;;;;;;;3.00;1.25;;;;;8.96;100.00;100631.03;6307713;22;44685;-84
2022/04/06 03:06:19;;;;;;;;;5.25;1.25;;;;;8.99;100.00;100629.06;6308889;22;44709;-82
2022/04/06 03:08:45;;;;;;;;;1.00;1.00;;;;;8.99;100.00;100621.13;6315892;22;45405;-83
2022/04/06 03:11:11;;;;;;;;;1.00;1.00;;;;;8.98;100.00;100624.69;6280665;22;44814;-83
2022/04/06 03:13:36;;;;;;;;;1.75;1.00;;;;;8.98;100.00;100626.50;6307524;22;45348;-83
2022/04/06 03:16:02;;;;;;;;;2.00;2.00;;;;;9.01;100.00;100624.50;6307303;22;45238;-82
2022/04/06 03:18:27;;;;;;;;;3.75;2.50;;;;;9.04;100.00;100623.44;6310174;22;45301;-83
2022/04/06 03:20:52;;;;;;;;;2.75;1.00;;;;;9.03;100.00;100619.09;6313917;22;45266;-82
2022/04/06 03:23:18;;;;;;;;;0.25;0.25;;;;;9.02;100.00;100606.81;6280423;22;44740;-82
2022/04/06 03:25:44;;;;;;;;;1.00;1.00;;;;;8.99;100.00;100605.22;6306874;22;44665;-82
2022/04/06 03:28:09;;;;;;;;;1.25;0.75;;;;;9.00;100.00;100608.72;6306311;22;45092;-83
2022/04/06 03:30:36;;;;;;;;;1.00;1.00;;;;;9.00;100.00;100603.41;6306022;22;44665;-82
2022/04/06 03:33:02;;;;;;;;;0.60;0.20;;;;;9.00;100.00;100588.38;6306434;22;45403;-83
2022/04/06 03:35:29;;;;;;;;;2.25;1.50;;;;;9.01;100.00;100595.38;6307045;22;45255;-81
2022/04/06 03:37:54;;;;;;;;;4.00;2.00;;;;;8.99;100.00;100593.75;6307693;22;45301;-82
2022/04/06 03:40:20;;;;;;;;;1.00;1.00;;;;;9.04;100.00;100594.31;6313028;22;44855;-83
2022/04/06 03:42:46;;;;;;;;;0.50;0.50;;;;;9.03;100.00;100589.97;6315339;22;44755;-81
2022/04/06 03:45:11;;;;;;;;;2.00;1.00;;;;;9.04;100.00;100599.59;6280783;22;45413;-82
2022/04/06 03:47:37;;;;;;;;;0.00;0.00;;;;;9.07;100.00;100586.16;6305991;22;45278;-80
2022/04/06 03:50:05;;;;;;;;;0.00;0.00;;;;;9.07;100.00;100595.91;6306679;22;44699;-80
2022/04/06 03:52:31;;;;;;;;;1.00;1.00;;;;;9.09;100.00;100586.06;6306632;22;44809;-83
2022/04/06 03:54:57;;;;;;;;;1.00;1.00;;;;;9.12;100.00;100591.19;6306596;22;45301;-83
2022/04/06 03:57:24;;;;;;;;;1.00;1.00;;;;;9.11;100.00;100582.38;6306503;22;45194;-82
2022/04/06 03:59:50;;;;;;;;;1.00;1.00;;;;;9.15;100.00;100585.69;6307003;22;45569;-83
2022/04/06 04:02:15;;;;;;;;;1.00;1.00;;;;;9.16;100.00;100582.09;6306857;22;45323;-82
2022/04/06 04:04:41;;;;;;;;;1.75;0.75;;;;;9.14;100.00;100587.50;6306996;22;45187;-83
2022/04/06 04:07:08;;;;;;;;;1.50;1.50;;;;;9.14;100.00;100592.81;6306436;22;44988;-82
2022/04/06 04:09:34;;;;;;;;;1.00;1.00;;;;;9.14;100.00;100582.19;6306163;22;44660;-83
2022/04/06 04:12:00;;;;;;;;;2.00;1.50;;;;;9.10;100.00;100586.00;6308747;22;44761;-82
2022/04/06 04:14:25;;;;;;;;;3.50;2.00;;;;;9.10;100.00;100583.34;6305874;22;45498;-81
2022/04/06 04:16:51;;;;;;;;;2.25;2.00;;;;;9.08;100.00;100585.22;6314869;22;45271;-83
2022/04/06 04:19:19;;;;;;;;;2.50;1.00;;;;;9.08;100.00;100581.72;6283571;22;45290;-82
2022/04/06 04:21:44;;;;;;;;;0.20;0.00;;;;;9.04;100.00;100583.69;6306566;22;45207;-84
2022/04/06 04:24:09;;;;;;;;;1.25;1.25;;;;;9.06;100.00;100583.63;6307845;22;44972;-82
2022/04/06 04:26:36;;;;;;;;;4.00;2.00;;;;;9.02;100.00;100586.47;6306670;22;45123;-83
2022/04/06 04:29:07;;;;;;;;;2.40;1.00;;;;;9.01;100.00;100578.63;6306655;22;45384;-82
2022/04/06 04:31:35;;;;;;;;;1.25;1.25;;;;;9.00;100.00;100579.56;6305533;22;45335;-83
2022/04/06 04:34:01;;;;;;;;;1.00;1.00;;;;;8.98;100.00;100581.44;6280094;22;44877;-81
2022/04/06 04:36:27;;;;;;;;;2.00;2.00;;;;;8.96;100.00;100575.41;6305569;22;45337;-82
2022/04/06 04:38:53;;;;;;;;;2.50;2.00;;;;;8.89;100.00;100582.88;6305816;22;45182;-83
2022/04/06 04:41:19;;;;;;;;;2.00;2.00;;;;;8.92;100.00;100565.94;6307788;22;44820;-83
2022/04/06 04:43:44;;;;;;;;;1.00;1.00;;;;;8.90;100.00;100559.91;6312553;22;44820;-83
2022/04/06 04:46:10;;;;;;;;;3.00;2.00;;;;;8.90;100.00;100562.56;6284667;22;46076;-83
2022/04/06 04:48:36;;;;;;;;;1.50;1.50;;;;;8.91;100.00;100559.81;6282088;22;45269;-82
2022/04/06 04:51:01;;;;;;;;;2.50;2.25;;;;;8.90;100.00;100551.97;6278735;22;45187;-82
2022/04/06 04:53:27;;;;;;;;;7.00;2.00;;;;;8.93;100.00;100544.66;6310371;22;45280;-82
2022/04/06 04:55:55;;;;;;;;;4.00;2.25;;;;;8.92;100.00;100542.94;6306943;22;45007;-83
2022/04/06 04:58:20;;;;;;;;;2.40;2.40;;;;;8.89;100.00;100548.44;6306242;22;44752;-83
2022/04/06 05:00:46;;;;;;;;;3.25;2.25;;;;;8.90;100.00;100546.66;6306431;22;45324;-83
2022/04/06 05:03:12;;;;;;;;;3.00;3.00;;;;;8.96;100.00;100556.84;6306591;22;45266;-82
2022/04/06 05:05:39;;;;;;;;;2.50;2.50;;;;;9.00;100.00;100548.63;6277396;22;45218;-81
2022/04/06 05:08:06;;;;;;;;;3.75;3.00;;;;;9.02;100.00;100552.00;6278416;22;45201;-82
2022/04/06 05:10:31;;;;;;;;;2.75;2.75;;;;;9.04;100.00;100545.75;6303669;22;44800;-83
2022/04/06 05:12:57;;;;;;;;;8.25;2.25;;;;;9.05;100.00;100539.53;6306662;22;45096;-82
2022/04/06 05:15:22;;;;;;;;;3.75;3.75;;;;;9.04;100.00;100538.66;6311683;22;45093;-82
2022/04/06 05:17:47;;;;;;;;;2.75;2.75;;;;;9.04;100.00;100543.97;6314729;22;45162;-83
2022/04/06 05:20:13;;;;;;;;;2.75;2.00;;;;;9.01;100.00;100547.66;6309447;22;45412;-85
2022/04/06 05:22:39;;;;;;;;;4.00;2.50;;;;;9.02;100.00;100548.50;6308751;22;45498;-84
2022/04/06 05:25:07;;;;;;;;;2.00;1.00;;;;;9.05;100.00;100540.38;6278890;22;45412;-84
2022/04/06 05:27:42;;;;;;;;;3.00;3.00;;;;;9.09;100.00;100533.94;6306765;22;44786;-84
2022/04/06 05:30:08;;;;;;;;;2.75;2.75;;;;;9.12;100.00;100527.56;6307381;22;45215;-83
2022/04/06 05:32:33;;;;;;;;;3.25;2.50;;;;;9.15;100.00;100538.84;6305149;22;45409;-83
2022/04/06 05:34:58;;;;;;;;;3.50;3.50;;;;;9.11;100.00;100539.97;6306046;22;44811;-83
2022/04/06 05:37:24;;;;;;;;;6.00;4.00;;;;;9.12;100.00;100540.84;6278371;22;45302;-84
2022/04/06 05:39:49;;;;;;;;;4.75;4.00;;;;;9.11;100.00;100553.22;6306705;22;44785;-83
2022/04/06 05:42:15;;;;;;;;;3.50;3.50;;;;;9.13;100.00;100553.13;6279206;22;45116;-83
2022/04/06 05:44:40;;;;;;;;;4.25;3.00;;;;;9.11;100.00;100553.22;6308824;22;45346;-83
2022/04/06 05:47:06;;;;;;;;;9.25;5.00;;;;;9.07;100.00;100554.38;6312468;22;44620;-83
2022/04/06 05:49:31;;;;;;;;;3.00;3.00;;;;;9.06;100.00;100544.72;6311911;22;44623;-83
2022/04/06 05:51:56;;;;;;;;;3.25;3.25;;;;;9.09;100.00;100554.25;6312947;22;44572;-84
2022/04/06 05:54:22;;;;;;;;;5.75;4.25;;;;;9.09;100.00;100555.16;6315316;22;45252;-84
2022/04/06 05:56:47;;;;;;;;;4.25;4.25;;;;;9.09;100.00;100551.63;6284624;22;44645;-82
2022/04/06 05:59:12;;;;;;;;;7.75;3.75;;;;;9.06;100.00;100546.53;6287272;22;45376;-85
2022/04/06 06:01:38;;;;;;;;;5.00;4.00;;;;;9.06;100.00;100544.72;6317921;22;44817;-85
2022/04/06 06:04:03;;;;;;;;;5.25;5.00;;;;;8.99;100.00;100544.28;6316376;22;45270;-84
2022/04/06 06:06:28;;;;;;;;;5.25;5.25;;;;;9.01;100.00;100547.66;6283161;22;44720;-85
2022/04/06 06:08:54;;;;;;;;;6.25;5.00;;;;;9.03;100.00;100552.84;6310402;22;44664;-82
2022/04/06 06:11:19;;;;;;;;;3.75;3.00;;;;;9.04;100.00;100551.06;6317290;22;45310;-82
2022/04/06 06:13:44;;;;;;;;;7.50;4.50;;;;;9.09;100.00;100548.97;6312917;22;45227;-84
2022/04/06 06:16:10;;;;;;;;;7.00;4.00;;;;;9.00;100.00;100543.31;6313883;22;45338;-84
2022/04/06 06:18:35;;;;;;;;;3.00;3.00;;;;;9.07;100.00;100546.41;6310975;22;45349;-83
2022/04/06 06:21:01;;;;;;;;;2.50;2.25;;;;;9.08;100.00;100537.50;6305759;22;44697;-82
2022/04/06 06:23:27;;;;;;;;;4.50;4.50;;;;;9.10;100.00;100540.09;6305043;22;44922;-82
2022/04/06 06:25:53;;;;;;;;;2.75;2.00;;;;;9.15;100.00;100536.19;6306126;22;44749;-81
2022/04/06 06:28:18;;;;;;;;;4.00;2.00;;;;;9.17;100.00;100530.78;6309220;22;44748;-83
2022/04/06 06:30:44;;;;;;;;;3.00;3.00;;;;;9.18;100.00;100525.38;6310129;22;44847;-82
2022/04/06 06:33:09;;;;;;;;;5.00;4.00;;;;;9.21;100.00;100533.13;6306852;22;45274;-83
2022/04/06 06:35:35;;;;;;;;;3.00;3.00;;;;;9.26;100.00;100531.03;6306189;22;45203;-83
2022/04/06 06:38:00;;;;;;;;;3.50;2.00;;;;;9.29;100.00;100534.47;6306018;22;45252;-81
2022/04/06 06:40:27;;;;;;;;;5.75;4.50;;;;;9.30;100.00;100529.06;6305983;22;44578;-82
2022/04/06 06:42:52;;;;;;;;;2.25;2.25;;;;;9.27;100.00;100539.84;6305312;22;45564;-82
2022/04/06 06:45:18;;;;;;;;;4.00;3.00;;;;;9.33;100.00;100533.28;6306202;22;44645;-81
2022/04/06 06:47:45;;;;;;;;;6.00;3.25;;;;;9.41;100.00;100528.34;6306642;22;45542;-82
2022/04/06 06:50:14;;;;;;;;;5.75;3.00;;;;;9.47;100.00;100525.28;6309065;22;44802;-82
2022/04/06 06:52:39;;;;;;;;;7.00;3.00;;;;;9.49;100.00;100531.34;6308145;22;46051;-83
2022/04/06 06:55:07;;;;;;;;;5.00;4.00;;;;;9.51;100.00;100534.75;6309415;22;44684;-82
2022/04/06 06:57:32;;;;;;;;;4.75;4.75;;;;;9.49;100.00;100526.91;6306150;22;45158;-83
2022/04/06 06:59:57;;;;;;;;;4.50;3.00;;;;;9.59;100.00;100528.94;6306706;22;45170;-81
2022/04/06 07:02:23;;;;;;;;;5.00;3.50;;;;;9.55;100.00;100519.47;6307586;22;45453;-82
2022/04/06 07:04:49;;;;;;;;;4.50;4.50;;;;;9.59;100.00;100516.53;6309665;22;45277;-82
2022/04/06 07:07:14;;;;;;;;;4.75;4.00;;;;;9.65;100.00;100512.63;6319905;22;45427;-81
2022/04/06 07:09:40;;;;;;;;;7.50;4.25;;;;;9.66;100.00;100509.00;6285398;22;44748;-82
2022/04/06 07:12:06;;;;;;;;;5.00;3.50;;;;;9.68;100.00;100520.38;6308969;22;45408;-81
2022/04/06 07:14:32;;;;;;;;;7.60;4.20;;;;;9.70;100.00;100515.81;6310103;22;45352;-81
2022/04/06 07:16:58;;;;;;;;;1.75;1.75;;;;;9.73;100.00;100508.50;6307957;22;45309;-82
2022/04/06 07:19:24;;;;;;;;;3.00;3.00;;;;;9.81;100.00;100512.44;6306616;22;44693;-82
2022/04/06 07:21:49;;;;;;;;;3.50;2.00;;;;;9.89;100.00;100515.44;6305722;22;45153;-82
2022/04/06 07:24:15;;;;;;;;;3.00;3.00;;;;;9.97;100.00;100503.34;6305765;22;44682;-82
2022/04/06 07:26:40;;;;;;;;;3.00;3.00;;;;;10.00;100.00;100507.56;6305924;22;44646;-82
2022/04/06 07:29:09;;;;;;;;;5.75;3.00;;;;;10.02;100.00;100497.72;6306445;22;45360;-81
2022/04/06 07:31:35;;;;;;;;;4.75;3.75;;;;;10.09;100.00;100495.47;6306005;22;45204;-81
2022/04/06 07:34:01;;;;;;;;;5.60;3.80;;;;;10.14;100.00;100496.88;6277312;22;45358;-83
2022/04/06 07:36:27;;;;;;;;;5.00;3.00;;;;;10.17;100.00;100498.47;6306419;22;44782;-83
2022/04/06 07:38:52;;;;;;;;;5.00;4.25;;;;;10.26;100.00;100503.19;6306225;22;45480;-83
2022/04/06 07:41:17;;;;;;;;;4.75;4.00;;;;;10.27;100.00;100496.91;6307860;22;45087;-82
2022/04/06 07:43:44;;;;;;;;;3.50;2.25;;;;;10.34;100.00;100499.97;6307784;22;44726;-82
2022/04/06 07:46:10;;;;;;;;;3.00;3.00;;;;;10.40;100.00;100502.22;6306554;22;44786;-81
2022/04/06 07:48:35;;;;;;;;;4.00;4.00;;;;;10.44;100.00;100499.25;6306189;22;45274;-82
2022/04/06 07:51:01;;;;;;;;;8.00;5.00;;;;;10.50;100.00;100496.16;6306700;22;45008;-82
2022/04/06 07:53:26;;;;;;;;;4.50;3.00;;;;;10.47;100.00;100498.16;6308356;22;45234;-82
2022/04/06 07:55:51;;;;;;;;;4.00;1.25;;;;;10.45;100.00;100489.47;6308165;22;44744;-82
2022/04/06 07:58:20;;;;;;;;;2.50;2.50;;;;;10.48;100.00;100486.56;6307892;22;44891;-81
2022/04/06 08:00:45;;;;;;;;;5.20;3.00;;;;;10.49;100.00;100488.28;6305880;22;46113;-82
2022/04/06 08:03:11;;;;;;;;;3.75;3.75;;;;;10.52;100.00;100483.59;6305924;22;45356;-81
2022/04/06 08:05:37;;;;;;;;;9.50;4.00;;;;;10.41;100.00;100464.94;6306185;22;44776;-81
2022/04/06 08:08:03;;;;;;;;;6.00;4.25;;;;;10.43;100.00;100473.63;6306249;22;44749;-80
2022/04/06 08:10:30;;;;;;;;;6.50;4.00;;;;;10.46;100.00;100475.22;6307858;22;45071;-81
2022/04/06 08:12:55;;;;;;;;;5.00;3.00;;;;;10.41;100.00;100467.59;6308272;22;45309;-81
2022/04/06 08:15:21;;;;;;;;;6.00;3.00;;;;;10.46;100.00;100467.25;6308996;22;44720;-81
2022/04/06 08:17:47;;;;;;;;;5.00;5.00;;;;;10.49;100.00;100459.94;6312615;22;44859;-82
2022/04/06 08:20:16;;;;;;;;;4.60;3.20;;;;;10.51;100.00;100467.78;6311018;22;45278;-82
2022/04/06 08:22:43;;;;;;;;;5.60;4.00;;;;;10.54;100.00;100456.94;6278093;22;45326;-80
2022/04/06 08:25:09;;;;;;;;;5.00;3.40;;;;;10.64;100.00;100455.34;6306301;22;45403;-82
2022/04/06 08:27:40;;;;;;;;;6.00;3.50;;;;;10.75;100.00;100454.56;6305689;22;45440;-81
2022/04/06 08:30:07;;;;;;;;;3.20;2.80;;;;;10.79;100.00;100461.34;6306790;22;45490;-82
2022/04/06 08:32:33;;;;;;;;;4.00;3.20;;;;;10.67;100.00;100457.75;6305953;22;45221;-81
2022/04/06 08:34:59;;;;;;;;;2.00;2.00;;;;;10.65;100.00;100465.00;6309147;22;45372;-87
2022/04/06 08:37:25;;;;;;;;;3.25;1.00;;;;;10.82;100.00;100461.09;6310087;22;45404;-86
2022/04/06 08:39:50;;;;;;;;;4.50;2.75;;;;;10.95;100.00;100458.41;6310396;22;45374;-88
2022/04/06 08:42:16;;;;;;;;;2.00;2.00;;;;;10.98;100.00;100456.38;6311503;22;45254;-87
2022/04/06 08:44:43;;;;;;;;;4.40;2.00;;;;;10.97;100.00;100453.81;6283344;22;45105;-87
2022/04/06 08:47:10;;;;;;;;;8.25;3.50;;;;;11.06;100.00;100454.00;6310880;22;44788;-87
2022/04/06 08:49:39;;;;;;;;;3.20;3.00;;;;;11.21;100.00;100453.84;6312147;22;45044;-85
2022/04/06 08:52:09;;;;;;;;;5.00;2.00;;;;;11.33;100.00;100456.44;6311787;22;44638;-87
2022/04/06 08:54:34;;;;;;;;;5.40;4.40;;;;;11.45;100.00;100445.84;6315008;22;45099;-87
2022/04/06 08:57:02;;;;;;;;;2.75;2.75;;;;;11.47;100.00;100447.44;6318426;22;44783;-88
2022/04/06 08:59:27;;;;;;;;;1.20;1.00;;;;;11.47;100.00;100449.25;6318361;22;45330;-87
2022/04/06 09:01:53;;;;;;;;;6.50;3.75;;;;;11.46;100.00;100443.06;6316054;22;44837;-88
2022/04/06 09:04:20;;;;;;;;;3.25;3.25;;;;;11.61;100.00;100438.41;6285200;22;44872;-88
2022/04/06 09:06:46;;;;;;;;;7.25;5.00;;;;;11.49;100.00;100437.50;6311869;22;45272;-87
2022/04/06 09:09:20;;;;;;;;;4.20;3.40;;;;;11.33;100.00;100436.97;6311575;22;45377;-87
2022/04/06 09:11:46;;;;;;;;;9.60;8.00;;;;;11.37;100.00;100434.94;6316791;22;44702;-88
2022/04/06 09:14:12;;;;;;;;;9.00;5.25;;;;;11.48;100.00;100432.31;6313449;22;45299;-88
2022/04/06 09:16:37;;;;;;;;;4.75;4.50;;;;;11.34;100.00;100438.66;6310918;22;45342;-88
2022/04/06 09:19:11;;;;;;;;;4.75;4.75;;;;;11.32;100.00;100438.78;6279575;22;45003;-87
2022/04/06 09:21:46;;;;;;;;;10.20;6.60;;;;;11.32;100.00;100436.13;6309372;22;44801;-87
2022/04/06 09:24:17;;;;;;;;;6.40;5.20;;;;;11.28;100.00;100432.00;6283709;22;45186;-86
2022/04/06 09:26:42;;;;;;;;;8.50;7.00;;;;;11.21;100.00;100430.75;6323697;22;45340;-86
2022/04/06 09:29:12;;;;;;;;;10.00;8.25;;;;;11.44;100.00;100422.88;6319763;22;45134;-87
2022/04/06 09:31:39;;;;;;;;;5.60;4.20;;;;;11.54;100.00;100427.38;6316473;22;44760;-86
2022/04/06 09:34:05;;;;;;;;;5.20;4.60;;;;;11.74;100.00;100428.50;6281614;22;44737;-82
2022/04/06 09:36:32;;;;;;;;;4.50;4.25;;;;;11.75;100.00;100432.88;6304967;22;44819;-82
2022/04/06 09:38:59;;;;;;;;;4.80;2.20;;;;;11.82;100.00;100426.13;6278524;22;45372;-82
2022/04/06 09:41:25;;;;;;;;;3.60;3.60;;;;;11.97;100.00;100424.09;6305823;22;44669;-82
2022/04/06 09:43:52;;;;;;;;;6.40;6.40;;;;;11.85;100.00;100435.72;6305889;22;45344;-81
2022/04/06 09:49:13;;;;;;;;;5.60;5.60;;;;;11.98;100.00;100435.59;6304954;22;45460;-81
2022/04/06 09:51:40;;;;;;;;;5.00;3.40;;;;;11.90;100.00;100430.88;6305541;22;45297;-83
2022/04/06 09:54:07;;;;;;;;;5.80;5.40;;;;;11.77;100.00;100435.41;6305435;22;45403;-83
2022/04/06 09:56:34;;;;;;;;;5.00;3.00;;;;;11.75;100.00;100429.38;6305630;22;44746;-82
2022/04/06 09:59:01;;;;;;;;;4.75;4.00;;;;;11.74;100.00;100433.81;6305073;22;45312;-81
2022/04/06 10:01:34;;;;;;;;;8.60;3.20;;;;;11.77;100.00;100430.09;6308543;22;45243;-82
2022/04/06 10:04:05;;;;;;;;;6.20;6.00;;;;;11.89;100.00;100431.81;6309541;22;45294;-83
2022/04/06 10:06:35;;;;;;;;;4.75;3.00;;;;;11.77;100.00;100428.28;6310532;22;44815;-82
2022/04/06 10:09:02;;;;;;;;;4.50;3.00;;;;;11.73;100.00;100429.47;6312342;22;45139;-83
2022/04/06 10:11:28;;;;;;;;;5.80;3.00;;;;;11.59;100.00;100433.19;6311024;22;44746;-82
2022/04/06 10:13:56;;;;;;;;;7.40;5.20;;;;;11.43;100.00;100421.19;6311225;22;44645;-82
2022/04/06 10:16:23;;;;;;;;;5.00;4.75;;;;;11.42;100.00;100424.81;6310911;22;45265;-80
2022/04/06 10:18:50;;;;;;;;;6.00;3.40;;;;;11.41;100.00;100415.97;6307398;22;45178;-82
2022/04/06 10:21:42;;;;;;;;;4.60;4.00;;;;;11.57;100.00;100405.00;6306045;22;44665;-82
2022/04/06 10:24:30;;;;;;;;;5.80;4.00;;;;;11.85;100.00;100403.78;6181438;23;44864;-83
2022/04/06 10:27:09;;;;;;;;;3.80;3.00;;;;;12.10;100.00;100394.72;6174815;23;45562;-82
2022/04/06 10:30:06;;;;;;;;;5.00;3.20;;;;;12.37;100.00;100393.47;6180378;23;45152;-83
2022/04/06 10:32:52;;;;;;;;;6.40;4.60;;;;;12.35;100.00;100389.13;6181762;23;44751;-83
2022/04/06 10:35:28;;;;;;;;;4.60;4.60;;;;;12.49;100.00;100395.16;6180744;23;45475;-83
2022/04/06 10:37:53;;;;;;;;;7.00;4.25;;;;;12.59;100.00;100396.13;6179708;23;44794;-82
2022/04/06 10:40:21;;;;;;;;;6.00;5.50;;;;;12.75;100.00;100390.38;6180411;23;45106;-79
2022/04/06 10:42:46;;;;;;;;;5.60;4.60;;;;;12.78;100.00;100379.47;6187047;23;44875;-83
2022/04/06 10:45:27;;;;;;;;;4.50;3.00;;;;;12.80;100.00;100386.38;6187154;23;45489;-83
2022/04/06 10:48:25;;;;;;;;;7.00;4.20;;;;;12.71;100.00;100379.13;6185100;23;45285;-83
2022/04/06 10:50:50;;;;;;;;;5.00;5.00;;;;;12.83;100.00;100377.28;6150464;23;45220;-83
2022/04/06 10:53:26;;;;;;;;;7.50;5.75;;;;;12.86;100.00;100371.69;6152197;23;45343;-81
2022/04/06 10:55:58;;;;;;;;;9.20;4.00;;;;;12.84;100.00;100369.16;6151586;23;44866;-82
2022/04/06 10:58:26;;;;;;;;;5.20;3.60;;;;;12.81;100.00;100357.88;6150242;23;44877;-82
2022/04/06 11:01:17;;;;;;;;;4.20;4.20;;;;;12.85;100.00;100359.34;6172252;22;45236;-82
2022/04/06 11:03:59;;;;;;;;;4.00;2.20;;;;;12.86;100.00;100345.03;6213515;22;45350;-82
2022/04/06 11:06:44;;;;;;;;;3.60;3.60;;;;;13.07;100.00;100329.06;6214266;22;45264;-82
2022/04/06 11:12:13;;;;;;;;;5.00;4.40;;;;;13.12;100.00;100324.19;6214178;22;45711;-83
2022/04/06 11:14:40;;;;;;;;;2.60;2.60;;;;;13.26;100.00;100331.91;6214652;22;45328;-82
2022/04/06 11:17:32;;;;;;;;;3.40;3.40;;;;;13.26;100.00;100331.06;6211942;22;45461;-82
2022/04/06 11:20:17;;;;;;;;;6.40;6.40;;;;;12.93;100.00;100324.88;6212898;22;45395;-81
2022/04/06 11:22:43;;;;;;;;;6.60;6.60;;;;;13.06;100.00;100314.91;6211918;22;45201;-82
2022/04/06 11:25:17;;;;;;;;;4.40;4.40;;;;;13.31;100.00;100316.38;6215016;22;45418;-82
2022/04/06 11:27:45;;;;;;;;;4.40;4.40;;;;;13.18;100.00;100312.16;6313214;22;44682;-83
2022/04/06 11:30:16;;;;;;;;;6.00;4.25;;;;;13.12;100.00;100313.53;6307043;22;45358;-82
2022/04/06 11:33:02;;;;;;;;;6.60;6.40;;;;;13.12;100.00;100306.38;6304648;22;45183;-82